Belgrade, MN

3:04 PM CST on January 27, 2015 (GMT -0600)
Sibley | Change Station
CLOSE
Current Station
Personal Weather Station
Location: New London, MN
Elevation: 1260 ft
Nearby Weather Stations

Elev 1260 ft 45.33 °N, 95.01 °W | Updated 14 minutes ago

Overcast
Overcast
32.2 °F
Feels Like 28 °F
N
4.2
Wind Variable Wind from ESE

Today
High -- | Low -- °F
--% Chance of Precip.
Yesterday
High -- | Low -- °F
Precip. -- in
7:46 AM 5:19 PM
First Quarter, 57% visible
Pressure 30.11 in
Visibility 10.0 miles
Clouds Overcast 1200 ft
Windchill 28 °F
Dew Point 29 °F
Humidity 88%
Rainfall 0.00 in
Snow Depth Not available.
UV 0 out of 12
Pollen .10 out of 12
Air Quality Not available.
Flu Activity Not available.
METAR KPEX 272034Z AUTO 10010KT 10SM OVC012 M01/M02 A3011 RMK AO2 T10071025

More Conditions Fewer Conditions

Pressure 30.11 in
Visibility 10.0 miles
Clouds Overcast 1200 ft
Windchill 28 °F
Dew Point 29 °F
Humidity 88%
Rainfall 0.00 in
Snow Depth Not available.
UV 0 out of 12
Pollen .10 out of 12
Air Quality Not available.
Flu Activity Not available.
METAR KPEX 272034Z AUTO 10010KT 10SM OVC012 M01/M02 A3011 RMK AO2 T10071025

More Conditions Fewer Conditions

10-Day Weather Forecast

Almanac

Astronomy

Jan. 27, 2015 Rise Set
Actual Time
Civil Twilight
Nautical Twilight
Astronomical Twilight
Moon
Length of Visible Light
Length of Day
Tomorrow will be .
, % of the Moon is Illuminated

Today's Extremes

State Highs State Lows

Community

WunderPhotos

Upload Photos

1,790,906 photos uploaded!

WunderBlogs® & News

Nearby

Air Quality

  Air Quality AQ Index Pollutant
Not available.

Snow Depth

Station Depth Elevation

Earthquake Activity

City Distance Mag. Time & Date
Minimum magnitude displayed is 2.5.

Coastal Water Temperatures

Place Temperature

Nearby Weather Stations